sensor_id;sensor_type;location;lat;lon;timestamp;temperature;humidity
43679;DHT22;29279;50.858;4.392;2023-06-04T00:00:44;17.80;63.00
43679;DHT22;29279;50.858;4.392;2023-06-04T00:03:09;17.70;63.20
43679;DHT22;29279;50.858;4.392;2023-06-04T00:05:35;17.60;63.50
43679;DHT22;29279;50.858;4.392;2023-06-04T00:08:01;17.60;63.50
43679;DHT22;29279;50.858;4.392;2023-06-04T00:10:27;17.60;63.70
43679;DHT22;29279;50.858;4.392;2023-06-04T00:12:52;17.60;64.00
43679;DHT22;29279;50.858;4.392;2023-06-04T00:15:18;17.60;64.10
43679;DHT22;29279;50.858;4.392;2023-06-04T00:17:44;17.50;63.90
43679;DHT22;29279;50.858;4.392;2023-06-04T00:20:10;17.50;64.20
43679;DHT22;29279;50.858;4.392;2023-06-04T00:22:36;17.50;64.20
43679;DHT22;29279;50.858;4.392;2023-06-04T00:25:02;17.50;64.10
43679;DHT22;29279;50.858;4.392;2023-06-04T00:27:28;17.40;64.40
43679;DHT22;29279;50.858;4.392;2023-06-04T00:29:54;17.30;64.60
43679;DHT22;29279;50.858;4.392;2023-06-04T00:32:20;17.30;64.70
43679;DHT22;29279;50.858;4.392;2023-06-04T00:34:56;17.20;64.80
43679;DHT22;29279;50.858;4.392;2023-06-04T00:37:23;17.10;65.10
43679;DHT22;29279;50.858;4.392;2023-06-04T00:39:49;17.00;65.50
43679;DHT22;29279;50.858;4.392;2023-06-04T00:42:16;17.00;65.70
43679;DHT22;29279;50.858;4.392;2023-06-04T00:44:41;17.00;65.90
43679;DHT22;29279;50.858;4.392;2023-06-04T00:47:16;17.00;66.00
43679;DHT22;29279;50.858;4.392;2023-06-04T00:49:42;16.90;66.10
43679;DHT22;29279;50.858;4.392;2023-06-04T00:52:09;16.90;66.40
43679;DHT22;29279;50.858;4.392;2023-06-04T00:54:36;16.90;66.60
43679;DHT22;29279;50.858;4.392;2023-06-04T00:57:02;16.80;66.40
43679;DHT22;29279;50.858;4.392;2023-06-04T00:59:32;16.80;66.60
43679;DHT22;29279;50.858;4.392;2023-06-04T01:02:34;16.80;66.80
43679;DHT22;29279;50.858;4.392;2023-06-04T01:05:26;16.70;67.00
43679;DHT22;29279;50.858;4.392;2023-06-04T01:07:54;16.70;67.20
43679;DHT22;29279;50.858;4.392;2023-06-04T01:10:21;16.60;67.30
43679;DHT22;29279;50.858;4.392;2023-06-04T01:12:47;16.70;67.40
43679;DHT22;29279;50.858;4.392;2023-06-04T01:15:13;16.60;67.60
43679;DHT22;29279;50.858;4.392;2023-06-04T01:17:43;16.60;67.60
43679;DHT22;29279;50.858;4.392;2023-06-04T01:25:37;16.60;67.90
43679;DHT22;29279;50.858;4.392;2023-06-04T01:28:08;16.50;68.10
43679;DHT22;29279;50.858;4.392;2023-06-04T01:30:37;16.40;68.20
43679;DHT22;29279;50.858;4.392;2023-06-04T01:33:11;16.30;68.40
43679;DHT22;29279;50.858;4.392;2023-06-04T01:35:37;16.30;68.60
43679;DHT22;29279;50.858;4.392;2023-06-04T01:38:03;16.30;68.80
43679;DHT22;29279;50.858;4.392;2023-06-04T01:40:29;16.20;68.90
43679;DHT22;29279;50.858;4.392;2023-06-04T01:42:55;16.20;69.00
43679;DHT22;29279;50.858;4.392;2023-06-04T01:45:22;16.10;69.00
43679;DHT22;29279;50.858;4.392;2023-06-04T01:47:48;16.10;69.30
43679;DHT22;29279;50.858;4.392;2023-06-04T01:50:14;16.00;69.60
43679;DHT22;29279;50.858;4.392;2023-06-04T01:52:40;16.00;69.80
43679;DHT22;29279;50.858;4.392;2023-06-04T01:55:11;16.00;69.90
43679;DHT22;29279;50.858;4.392;2023-06-04T01:57:38;16.00;70.00
43679;DHT22;29279;50.858;4.392;2023-06-04T02:00:05;16.00;70.10
43679;DHT22;29279;50.858;4.392;2023-06-04T02:02:35;15.90;70.50
43679;DHT22;29279;50.858;4.392;2023-06-04T02:05:01;15.90;70.70
43679;DHT22;29279;50.858;4.392;2023-06-04T02:07:27;15.90;71.10
43679;DHT22;29279;50.858;4.392;2023-06-04T02:09:53;15.80;71.10
43679;DHT22;29279;50.858;4.392;2023-06-04T02:12:18;15.80;71.40
43679;DHT22;29279;50.858;4.392;2023-06-04T02:14:44;15.70;71.50
43679;DHT22;29279;50.858;4.392;2023-06-04T02:17:13;15.70;72.20
43679;DHT22;29279;50.858;4.392;2023-06-04T02:19:43;15.70;72.20
43679;DHT22;29279;50.858;4.392;2023-06-04T02:22:17;15.70;72.40
43679;DHT22;29279;50.858;4.392;2023-06-04T02:24:43;15.60;72.70
43679;DHT22;29279;50.858;4.392;2023-06-04T02:27:10;15.60;72.90
43679;DHT22;29279;50.858;4.392;2023-06-04T02:29:37;15.50;73.20
43679;DHT22;29279;50.858;4.392;2023-06-04T02:32:03;15.40;73.60
43679;DHT22;29279;50.858;4.392;2023-06-04T02:34:29;15.40;73.80
43679;DHT22;29279;50.858;4.392;2023-06-04T02:36:55;15.30;74.10
43679;DHT22;29279;50.858;4.392;2023-06-04T02:39:21;15.30;74.20
43679;DHT22;29279;50.858;4.392;2023-06-04T02:41:47;15.40;74.20
43679;DHT22;29279;50.858;4.392;2023-06-04T02:44:13;15.30;74.30
43679;DHT22;29279;50.858;4.392;2023-06-04T02:46:39;15.30;74.40
43679;DHT22;29279;50.858;4.392;2023-06-04T02:49:05;15.30;74.80
43679;DHT22;29279;50.858;4.392;2023-06-04T02:51:30;15.20;75.10
43679;DHT22;29279;50.858;4.392;2023-06-04T02:53:56;15.20;75.10
43679;DHT22;29279;50.858;4.392;2023-06-04T02:56:22;15.20;75.10
43679;DHT22;29279;50.858;4.392;2023-06-04T02:58:51;15.20;75.40
43679;DHT22;29279;50.858;4.392;2023-06-04T03:01:24;15.20;75.40
43679;DHT22;29279;50.858;4.392;2023-06-04T03:03:52;15.10;75.50
43679;DHT22;29279;50.858;4.392;2023-06-04T03:06:18;15.00;76.10
43679;DHT22;29279;50.858;4.392;2023-06-04T03:08:46;15.00;76.90
43679;DHT22;29279;50.858;4.392;2023-06-04T03:11:12;14.90;76.60
43679;DHT22;29279;50.858;4.392;2023-06-04T03:13:38;15.00;76.50
43679;DHT22;29279;50.858;4.392;2023-06-04T03:16:04;14.90;76.60
43679;DHT22;29279;50.858;4.392;2023-06-04T03:18:35;14.90;77.00
43679;DHT22;29279;50.858;4.392;2023-06-04T03:21:02;14.90;76.80
43679;DHT22;29279;50.858;4.392;2023-06-04T03:23:27;14.90;77.10
43679;DHT22;29279;50.858;4.392;2023-06-04T03:25:53;14.90;77.20
43679;DHT22;29279;50.858;4.392;2023-06-04T03:28:19;14.90;77.50
43679;DHT22;29279;50.858;4.392;2023-06-04T03:30:44;14.80;77.50
43679;DHT22;29279;50.858;4.392;2023-06-04T03:33:10;14.80;77.90
43679;DHT22;29279;50.858;4.392;2023-06-04T03:35:36;14.80;77.90
43679;DHT22;29279;50.858;4.392;2023-06-04T03:38:01;14.80;78.20
43679;DHT22;29279;50.858;4.392;2023-06-04T03:40:27;14.80;78.40
43679;DHT22;29279;50.858;4.392;2023-06-04T03:42:53;14.90;78.50
43679;DHT22;29279;50.858;4.392;2023-06-04T03:45:18;14.80;78.60
43679;DHT22;29279;50.858;4.392;2023-06-04T03:47:45;14.80;78.60
43679;DHT22;29279;50.858;4.392;2023-06-04T03:50:11;14.80;78.80
43679;DHT22;29279;50.858;4.392;2023-06-04T03:52:36;14.80;78.90
43679;DHT22;29279;50.858;4.392;2023-06-04T03:55:02;14.90;79.20
43679;DHT22;29279;50.858;4.392;2023-06-04T03:57:29;14.80;79.10
43679;DHT22;29279;50.858;4.392;2023-06-04T03:59:54;14.90;79.30
43679;DHT22;29279;50.858;4.392;2023-06-04T04:02:21;14.90;79.60
43679;DHT22;29279;50.858;4.392;2023-06-04T04:04:46;14.80;79.50
43679;DHT22;29279;50.858;4.392;2023-06-04T04:07:12;14.80;80.30
43679;DHT22;29279;50.858;4.392;2023-06-04T04:09:38;14.80;79.70
43679;DHT22;29279;50.858;4.392;2023-06-04T04:12:04;14.80;80.00
43679;DHT22;29279;50.858;4.392;2023-06-04T04:14:30;14.80;80.30
43679;DHT22;29279;50.858;4.392;2023-06-04T04:16:55;14.80;80.40
43679;DHT22;29279;50.858;4.392;2023-06-04T04:19:21;14.70;80.80
43679;DHT22;29279;50.858;4.392;2023-06-04T04:21:47;14.80;80.90
43679;DHT22;29279;50.858;4.392;2023-06-04T04:24:26;14.70;81.00
43679;DHT22;29279;50.858;4.392;2023-06-04T04:26:52;14.70;81.20
43679;DHT22;29279;50.858;4.392;2023-06-04T04:29:22;14.70;81.50
43679;DHT22;29279;50.858;4.392;2023-06-04T04:31:51;14.80;81.40
43679;DHT22;29279;50.858;4.392;2023-06-04T04:34:17;14.90;81.20
43679;DHT22;29279;50.858;4.392;2023-06-04T04:36:45;14.90;81.40
43679;DHT22;29279;50.858;4.392;2023-06-04T04:39:23;14.80;81.40
43679;DHT22;29279;50.858;4.392;2023-06-04T04:41:50;14.90;82.20
43679;DHT22;29279;50.858;4.392;2023-06-04T04:44:16;14.90;81.60
43679;DHT22;29279;50.858;4.392;2023-06-04T04:46:42;15.00;81.60
43679;DHT22;29279;50.858;4.392;2023-06-04T04:49:08;14.90;81.80
43679;DHT22;29279;50.858;4.392;2023-06-04T04:51:33;14.90;82.00
43679;DHT22;29279;50.858;4.392;2023-06-04T04:53:59;15.00;82.00
43679;DHT22;29279;50.858;4.392;2023-06-04T04:56:28;14.90;82.10
43679;DHT22;29279;50.858;4.392;2023-06-04T04:58:55;15.00;82.20
43679;DHT22;29279;50.858;4.392;2023-06-04T05:01:21;15.10;82.00
43679;DHT22;29279;50.858;4.392;2023-06-04T05:03:48;15.10;81.70
43679;DHT22;29279;50.858;4.392;2023-06-04T05:06:14;15.20;81.70
43679;DHT22;29279;50.858;4.392;2023-06-04T05:08:39;15.30;81.70
43679;DHT22;29279;50.858;4.392;2023-06-04T05:11:05;15.40;81.70
43679;DHT22;29279;50.858;4.392;2023-06-04T05:13:31;15.50;81.40
43679;DHT22;29279;50.858;4.392;2023-06-04T05:15:57;15.50;81.50
43679;DHT22;29279;50.858;4.392;2023-06-04T05:18:23;15.50;81.40
43679;DHT22;29279;50.858;4.392;2023-06-04T05:20:54;15.60;81.50
43679;DHT22;29279;50.858;4.392;2023-06-04T05:23:20;15.70;81.30
43679;DHT22;29279;50.858;4.392;2023-06-04T05:25:46;15.70;81.40
43679;DHT22;29279;50.858;4.392;2023-06-04T05:28:14;15.70;81.30
43679;DHT22;29279;50.858;4.392;2023-06-04T05:30:40;15.70;81.40
43679;DHT22;29279;50.858;4.392;2023-06-04T05:33:07;15.80;81.30
43679;DHT22;29279;50.858;4.392;2023-06-04T05:35:46;15.90;80.90
43679;DHT22;29279;50.858;4.392;2023-06-04T05:38:14;16.00;81.00
43679;DHT22;29279;50.858;4.392;2023-06-04T05:40:44;16.00;81.00
43679;DHT22;29279;50.858;4.392;2023-06-04T05:43:10;16.10;80.90
43679;DHT22;29279;50.858;4.392;2023-06-04T05:45:35;16.10;80.80
43679;DHT22;29279;50.858;4.392;2023-06-04T05:48:01;16.10;81.00
43679;DHT22;29279;50.858;4.392;2023-06-04T05:50:27;16.10;81.10
43679;DHT22;29279;50.858;4.392;2023-06-04T05:52:53;16.10;80.60
43679;DHT22;29279;50.858;4.392;2023-06-04T05:55:19;16.20;80.20
43679;DHT22;29279;50.858;4.392;2023-06-04T05:57:45;16.10;80.30
43679;DHT22;29279;50.858;4.392;2023-06-04T06:00:11;16.20;80.60
43679;DHT22;29279;50.858;4.392;2023-06-04T06:02:37;16.20;80.40
43679;DHT22;29279;50.858;4.392;2023-06-04T06:05:06;16.30;80.40
43679;DHT22;29279;50.858;4.392;2023-06-04T06:07:35;16.40;79.80
43679;DHT22;29279;50.858;4.392;2023-06-04T06:10:02;16.50;79.70
43679;DHT22;29279;50.858;4.392;2023-06-04T06:12:28;16.60;79.40
43679;DHT22;29279;50.858;4.392;2023-06-04T06:14:54;16.70;79.40
43679;DHT22;29279;50.858;4.392;2023-06-04T06:17:19;16.80;79.00
43679;DHT22;29279;50.858;4.392;2023-06-04T06:19:45;16.90;78.80
43679;DHT22;29279;50.858;4.392;2023-06-04T06:22:11;16.90;78.80
43679;DHT22;29279;50.858;4.392;2023-06-04T06:24:38;17.10;78.40
43679;DHT22;29279;50.858;4.392;2023-06-04T06:27:05;17.20;78.60
43679;DHT22;29279;50.858;4.392;2023-06-04T06:29:31;17.20;78.50
43679;DHT22;29279;50.858;4.392;2023-06-04T06:31:57;17.20;78.10
43679;DHT22;29279;50.858;4.392;2023-06-04T06:34:23;17.30;77.60
43679;DHT22;29279;50.858;4.392;2023-06-04T06:36:48;17.50;77.50
43679;DHT22;29279;50.858;4.392;2023-06-04T06:39:15;17.50;77.60
43679;DHT22;29279;50.858;4.392;2023-06-04T06:41:41;17.60;76.90
43679;DHT22;29279;50.858;4.392;2023-06-04T06:44:07;17.70;76.20
43679;DHT22;29279;50.858;4.392;2023-06-04T06:46:33;17.80;76.20
43679;DHT22;29279;50.858;4.392;2023-06-04T06:48:58;17.80;76.20
43679;DHT22;29279;50.858;4.392;2023-06-04T06:51:24;17.90;75.70
43679;DHT22;29279;50.858;4.392;2023-06-04T06:53:50;17.90;75.70
43679;DHT22;29279;50.858;4.392;2023-06-04T06:56:19;17.90;75.20
43679;DHT22;29279;50.858;4.392;2023-06-04T06:58:44;18.00;75.10
43679;DHT22;29279;50.858;4.392;2023-06-04T07:01:11;18.10;75.00
43679;DHT22;29279;50.858;4.392;2023-06-04T07:03:37;18.10;74.80
43679;DHT22;29279;50.858;4.392;2023-06-04T07:06:05;18.20;74.30
43679;DHT22;29279;50.858;4.392;2023-06-04T07:08:31;18.30;74.20
43679;DHT22;29279;50.858;4.392;2023-06-04T07:10:58;18.40;73.80
43679;DHT22;29279;50.858;4.392;2023-06-04T07:13:23;18.40;73.60
43679;DHT22;29279;50.858;4.392;2023-06-04T07:15:49;18.60;73.80
43679;DHT22;29279;50.858;4.392;2023-06-04T07:18:15;18.60;73.50
43679;DHT22;29279;50.858;4.392;2023-06-04T07:20:41;18.80;72.90
43679;DHT22;29279;50.858;4.392;2023-06-04T07:23:06;18.80;73.10
43679;DHT22;29279;50.858;4.392;2023-06-04T07:25:33;18.90;73.00
43679;DHT22;29279;50.858;4.392;2023-06-04T07:27:58;19.00;72.50
43679;DHT22;29279;50.858;4.392;2023-06-04T07:30:25;19.10;72.40
43679;DHT22;29279;50.858;4.392;2023-06-04T07:32:51;19.00;72.20
43679;DHT22;29279;50.858;4.392;2023-06-04T07:35:16;19.20;72.30
43679;DHT22;29279;50.858;4.392;2023-06-04T07:37:42;19.20;72.20
43679;DHT22;29279;50.858;4.392;2023-06-04T07:40:13;19.30;71.90
43679;DHT22;29279;50.858;4.392;2023-06-04T07:42:40;19.50;71.50
43679;DHT22;29279;50.858;4.392;2023-06-04T07:45:06;19.60;70.90
43679;DHT22;29279;50.858;4.392;2023-06-04T07:47:32;19.70;70.30
43679;DHT22;29279;50.858;4.392;2023-06-04T07:49:58;19.80;69.70
43679;DHT22;29279;50.858;4.392;2023-06-04T07:52:23;19.90;69.30
43679;DHT22;29279;50.858;4.392;2023-06-04T07:54:49;20.00;69.10
43679;DHT22;29279;50.858;4.392;2023-06-04T07:57:15;20.10;68.50
43679;DHT22;29279;50.858;4.392;2023-06-04T07:59:40;20.10;68.90
43679;DHT22;29279;50.858;4.392;2023-06-04T08:02:06;20.20;68.20
43679;DHT22;29279;50.858;4.392;2023-06-04T08:04:32;20.30;68.30
43679;DHT22;29279;50.858;4.392;2023-06-04T08:06:58;20.40;68.20
43679;DHT22;29279;50.858;4.392;2023-06-04T08:09:24;20.50;67.50
43679;DHT22;29279;50.858;4.392;2023-06-04T08:11:50;20.60;67.70
43679;DHT22;29279;50.858;4.392;2023-06-04T08:14:16;20.60;67.60
43679;DHT22;29279;50.858;4.392;2023-06-04T08:16:42;20.70;67.80
43679;DHT22;29279;50.858;4.392;2023-06-04T08:19:08;20.80;67.20
43679;DHT22;29279;50.858;4.392;2023-06-04T08:21:34;20.90;67.00
43679;DHT22;29279;50.858;4.392;2023-06-04T08:24:00;21.00;66.60
43679;DHT22;29279;50.858;4.392;2023-06-04T08:26:26;21.10;66.90
43679;DHT22;29279;50.858;4.392;2023-06-04T08:28:55;21.10;66.80
43679;DHT22;29279;50.858;4.392;2023-06-04T08:31:20;21.30;66.70
43679;DHT22;29279;50.858;4.392;2023-06-04T08:33:47;21.50;65.90
43679;DHT22;29279;50.858;4.392;2023-06-04T08:36:13;21.70;65.80
43679;DHT22;29279;50.858;4.392;2023-06-04T08:38:39;21.90;65.20
43679;DHT22;29279;50.858;4.392;2023-06-04T08:41:16;21.90;64.60
43679;DHT22;29279;50.858;4.392;2023-06-04T08:43:43;21.90;64.20
43679;DHT22;29279;50.858;4.392;2023-06-04T08:46:15;22.00;64.50
43679;DHT22;29279;50.858;4.392;2023-06-04T08:48:41;22.20;64.20
43679;DHT22;29279;50.858;4.392;2023-06-04T08:51:07;22.20;64.20
43679;DHT22;29279;50.858;4.392;2023-06-04T08:53:34;22.30;63.60
43679;DHT22;29279;50.858;4.392;2023-06-04T08:56:01;22.50;63.40
43679;DHT22;29279;50.858;4.392;2023-06-04T08:58:31;22.60;62.90
43679;DHT22;29279;50.858;4.392;2023-06-04T09:00:59;22.70;63.10
43679;DHT22;29279;50.858;4.392;2023-06-04T09:03:26;22.80;62.10
43679;DHT22;29279;50.858;4.392;2023-06-04T09:05:52;22.90;62.70
43679;DHT22;29279;50.858;4.392;2023-06-04T09:08:21;23.00;62.60
43679;DHT22;29279;50.858;4.392;2023-06-04T09:10:49;23.20;61.90
43679;DHT22;29279;50.858;4.392;2023-06-04T09:13:18;23.30;61.70
43679;DHT22;29279;50.858;4.392;2023-06-04T09:15:44;23.30;61.10
43679;DHT22;29279;50.858;4.392;2023-06-04T09:18:11;23.40;61.40
43679;DHT22;29279;50.858;4.392;2023-06-04T09:20:37;23.60;61.20
43679;DHT22;29279;50.858;4.392;2023-06-04T09:23:14;23.80;60.60
43679;DHT22;29279;50.858;4.392;2023-06-04T09:25:42;23.90;60.60
43679;DHT22;29279;50.858;4.392;2023-06-04T09:28:09;24.00;60.30
43679;DHT22;29279;50.858;4.392;2023-06-04T09:30:35;24.10;60.60
43679;DHT22;29279;50.858;4.392;2023-06-04T09:33:10;24.30;59.70
43679;DHT22;29279;50.858;4.392;2023-06-04T09:35:37;24.40;60.40
43679;DHT22;29279;50.858;4.392;2023-06-04T09:38:05;24.60;59.20
43679;DHT22;29279;50.858;4.392;2023-06-04T09:40:37;24.70;58.70
43679;DHT22;29279;50.858;4.392;2023-06-04T09:43:03;24.90;58.20
43679;DHT22;29279;50.858;4.392;2023-06-04T09:45:31;25.00;59.00
43679;DHT22;29279;50.858;4.392;2023-06-04T09:47:58;25.10;58.50
43679;DHT22;29279;50.858;4.392;2023-06-04T09:50:29;25.30;58.50
43679;DHT22;29279;50.858;4.392;2023-06-04T09:52:55;25.50;57.70
43679;DHT22;29279;50.858;4.392;2023-06-04T09:55:22;25.70;57.80
43679;DHT22;29279;50.858;4.392;2023-06-04T09:57:49;26.00;57.20
43679;DHT22;29279;50.858;4.392;2023-06-04T10:00:20;26.00;57.30
43679;DHT22;29279;50.858;4.392;2023-06-04T10:02:53;26.10;57.40
43679;DHT22;29279;50.858;4.392;2023-06-04T10:05:21;26.30;57.40
43679;DHT22;29279;50.858;4.392;2023-06-04T10:07:51;26.40;56.80
43679;DHT22;29279;50.858;4.392;2023-06-04T10:10:21;26.60;56.70
43679;DHT22;29279;50.858;4.392;2023-06-04T10:13:06;26.70;56.60
43679;DHT22;29279;50.858;4.392;2023-06-04T10:15:33;26.90;56.40
43679;DHT22;29279;50.858;4.392;2023-06-04T10:17:59;27.00;56.60
43679;DHT22;29279;50.858;4.392;2023-06-04T10:20:27;27.00;56.40
43679;DHT22;29279;50.858;4.392;2023-06-04T10:22:54;27.00;57.10
43679;DHT22;29279;50.858;4.392;2023-06-04T10:25:20;26.90;56.60
43679;DHT22;29279;50.858;4.392;2023-06-04T10:27:46;27.10;56.80
43679;DHT22;29279;50.858;4.392;2023-06-04T10:30:13;27.50;55.90
43679;DHT22;29279;50.858;4.392;2023-06-04T10:32:38;27.80;55.50
43679;DHT22;29279;50.858;4.392;2023-06-04T10:35:05;28.00;55.20
43679;DHT22;29279;50.858;4.392;2023-06-04T10:37:33;27.90;55.50
43679;DHT22;29279;50.858;4.392;2023-06-04T10:39:59;28.10;56.40
43679;DHT22;29279;50.858;4.392;2023-06-04T10:42:25;28.60;55.20
43679;DHT22;29279;50.858;4.392;2023-06-04T10:44:52;29.00;55.20
43679;DHT22;29279;50.858;4.392;2023-06-04T10:47:26;29.50;54.30
43679;DHT22;29279;50.858;4.392;2023-06-04T10:49:54;30.00;53.70
43679;DHT22;29279;50.858;4.392;2023-06-04T10:52:22;30.40;53.70
43679;DHT22;29279;50.858;4.392;2023-06-04T10:54:48;30.50;52.90
43679;DHT22;29279;50.858;4.392;2023-06-04T10:57:18;30.50;52.30
43679;DHT22;29279;50.858;4.392;2023-06-04T10:59:56;30.80;53.10
43679;DHT22;29279;50.858;4.392;2023-06-04T11:02:23;31.10;52.70
43679;DHT22;29279;50.858;4.392;2023-06-04T11:05:06;31.30;52.80
43679;DHT22;29279;50.858;4.392;2023-06-04T11:07:44;31.60;51.90
43679;DHT22;29279;50.858;4.392;2023-06-04T11:10:11;32.00;51.60
43679;DHT22;29279;50.858;4.392;2023-06-04T11:12:47;32.40;50.50
43679;DHT22;29279;50.858;4.392;2023-06-04T11:15:17;32.50;51.30
43679;DHT22;29279;50.858;4.392;2023-06-04T11:17:54;32.80;51.00
43679;DHT22;29279;50.858;4.392;2023-06-04T11:20:22;33.20;51.10
43679;DHT22;29279;50.858;4.392;2023-06-04T11:22:58;33.10;49.80
43679;DHT22;29279;50.858;4.392;2023-06-04T11:25:29;32.90;50.30
43679;DHT22;29279;50.858;4.392;2023-06-04T11:27:56;33.10;49.80
43679;DHT22;29279;50.858;4.392;2023-06-04T11:30:23;33.40;49.30
43679;DHT22;29279;50.858;4.392;2023-06-04T11:32:50;33.40;49.40
43679;DHT22;29279;50.858;4.392;2023-06-04T11:35:16;33.70;49.90
43679;DHT22;29279;50.858;4.392;2023-06-04T11:37:41;34.30;49.10
43679;DHT22;29279;50.858;4.392;2023-06-04T11:40:18;34.50;49.00
43679;DHT22;29279;50.858;4.392;2023-06-04T11:42:46;34.20;49.10
43679;DHT22;29279;50.858;4.392;2023-06-04T11:45:17;34.50;49.20
43679;DHT22;29279;50.858;4.392;2023-06-04T11:47:52;34.60;48.70
43679;DHT22;29279;50.858;4.392;2023-06-04T11:50:18;34.50;48.50
43679;DHT22;29279;50.858;4.392;2023-06-04T11:52:45;34.50;48.40
43679;DHT22;29279;50.858;4.392;2023-06-04T11:55:12;34.40;48.90
43679;DHT22;29279;50.858;4.392;2023-06-04T11:57:39;34.50;48.70
43679;DHT22;29279;50.858;4.392;2023-06-04T12:00:06;34.90;48.00
43679;DHT22;29279;50.858;4.392;2023-06-04T12:02:39;34.70;48.20
43679;DHT22;29279;50.858;4.392;2023-06-04T12:05:14;35.00;48.00
43679;DHT22;29279;50.858;4.392;2023-06-04T12:07:40;35.20;49.00
43679;DHT22;29279;50.858;4.392;2023-06-04T12:10:10;35.40;48.60
43679;DHT22;29279;50.858;4.392;2023-06-04T12:12:37;35.70;48.40
43679;DHT22;29279;50.858;4.392;2023-06-04T12:15:03;35.50;47.60
43679;DHT22;29279;50.858;4.392;2023-06-04T12:17:31;34.90;47.50
43679;DHT22;29279;50.858;4.392;2023-06-04T12:19:57;35.20;48.10
43679;DHT22;29279;50.858;4.392;2023-06-04T12:22:25;35.00;47.10
43679;DHT22;29279;50.858;4.392;2023-06-04T12:24:56;34.60;47.40
43679;DHT22;29279;50.858;4.392;2023-06-04T12:27:25;34.50;48.50
43679;DHT22;29279;50.858;4.392;2023-06-04T12:30:03;34.70;47.70
43679;DHT22;29279;50.858;4.392;2023-06-04T12:32:29;34.80;47.10
43679;DHT22;29279;50.858;4.392;2023-06-04T12:34:55;35.20;47.50
43679;DHT22;29279;50.858;4.392;2023-06-04T12:37:24;35.50;46.90
43679;DHT22;29279;50.858;4.392;2023-06-04T12:39:54;35.40;47.80
43679;DHT22;29279;50.858;4.392;2023-06-04T12:42:20;35.30;46.70
43679;DHT22;29279;50.858;4.392;2023-06-04T12:44:46;35.10;47.40
43679;DHT22;29279;50.858;4.392;2023-06-04T12:47:12;35.40;46.80
43679;DHT22;29279;50.858;4.392;2023-06-04T12:49:38;35.50;47.00
43679;DHT22;29279;50.858;4.392;2023-06-04T12:52:04;35.90;46.40
43679;DHT22;29279;50.858;4.392;2023-06-04T12:54:30;36.00;46.10
43679;DHT22;29279;50.858;4.392;2023-06-04T12:56:57;36.00;46.10
43679;DHT22;29279;50.858;4.392;2023-06-04T12:59:24;35.90;46.30
43679;DHT22;29279;50.858;4.392;2023-06-04T13:01:51;35.50;46.50
43679;DHT22;29279;50.858;4.392;2023-06-04T13:04:16;35.70;46.30
43679;DHT22;29279;50.858;4.392;2023-06-04T13:06:42;35.70;46.60
43679;DHT22;29279;50.858;4.392;2023-06-04T13:09:08;36.00;46.20
43679;DHT22;29279;50.858;4.392;2023-06-04T13:11:42;36.50;46.30
43679;DHT22;29279;50.858;4.392;2023-06-04T13:14:09;36.40;46.30
43679;DHT22;29279;50.858;4.392;2023-06-04T13:16:35;36.50;46.00
43679;DHT22;29279;50.858;4.392;2023-06-04T13:19:01;36.60;45.20
43679;DHT22;29279;50.858;4.392;2023-06-04T13:21:27;36.60;45.30
43679;DHT22;29279;50.858;4.392;2023-06-04T13:23:53;36.70;45.20
43679;DHT22;29279;50.858;4.392;2023-06-04T13:26:19;36.50;45.00
43679;DHT22;29279;50.858;4.392;2023-06-04T13:28:45;36.30;46.20
43679;DHT22;29279;50.858;4.392;2023-06-04T13:31:11;36.10;44.70
43679;DHT22;29279;50.858;4.392;2023-06-04T13:33:36;36.00;45.60
43679;DHT22;29279;50.858;4.392;2023-06-04T13:36:03;36.00;46.40
43679;DHT22;29279;50.858;4.392;2023-06-04T13:38:28;36.20;44.80
43679;DHT22;29279;50.858;4.392;2023-06-04T13:40:54;36.10;45.20
43679;DHT22;29279;50.858;4.392;2023-06-04T13:43:20;36.50;45.10
43679;DHT22;29279;50.858;4.392;2023-06-04T13:45:46;36.60;44.70
43679;DHT22;29279;50.858;4.392;2023-06-04T13:48:12;36.80;44.40
43679;DHT22;29279;50.858;4.392;2023-06-04T13:50:38;36.00;44.70
43679;DHT22;29279;50.858;4.392;2023-06-04T13:53:04;35.60;44.80
43679;DHT22;29279;50.858;4.392;2023-06-04T13:55:30;35.50;45.00
43679;DHT22;29279;50.858;4.392;2023-06-04T13:57:56;35.00;45.90
43679;DHT22;29279;50.858;4.392;2023-06-04T14:00:22;35.30;44.70
43679;DHT22;29279;50.858;4.392;2023-06-04T14:02:48;35.40;45.40
43679;DHT22;29279;50.858;4.392;2023-06-04T14:05:14;35.70;45.60
43679;DHT22;29279;50.858;4.392;2023-06-04T14:07:43;35.80;45.60
43679;DHT22;29279;50.858;4.392;2023-06-04T14:10:10;35.90;45.00
43679;DHT22;29279;50.858;4.392;2023-06-04T14:12:37;35.40;45.00
43679;DHT22;29279;50.858;4.392;2023-06-04T14:15:05;35.00;45.90
43679;DHT22;29279;50.858;4.392;2023-06-04T14:17:31;34.20;45.40
43679;DHT22;29279;50.858;4.392;2023-06-04T14:19:57;33.90;44.90
43679;DHT22;29279;50.858;4.392;2023-06-04T14:22:22;33.60;45.50
43679;DHT22;29279;50.858;4.392;2023-06-04T14:24:48;33.30;46.60
43679;DHT22;29279;50.858;4.392;2023-06-04T14:27:14;33.30;45.60
43679;DHT22;29279;50.858;4.392;2023-06-04T14:29:40;33.20;46.10
43679;DHT22;29279;50.858;4.392;2023-06-04T14:32:06;33.20;45.90
43679;DHT22;29279;50.858;4.392;2023-06-04T14:34:31;33.20;45.60
43679;DHT22;29279;50.858;4.392;2023-06-04T14:36:58;32.90;45.50
43679;DHT22;29279;50.858;4.392;2023-06-04T14:39:26;32.70;45.90
43679;DHT22;29279;50.858;4.392;2023-06-04T14:41:52;32.60;46.00
43679;DHT22;29279;50.858;4.392;2023-06-04T14:44:18;32.60;45.70
43679;DHT22;29279;50.858;4.392;2023-06-04T14:46:44;32.50;45.80
43679;DHT22;29279;50.858;4.392;2023-06-04T14:49:10;32.50;46.20
43679;DHT22;29279;50.858;4.392;2023-06-04T14:51:35;32.20;46.10
43679;DHT22;29279;50.858;4.392;2023-06-04T14:54:02;32.00;46.30
43679;DHT22;29279;50.858;4.392;2023-06-04T14:56:28;31.90;45.70
43679;DHT22;29279;50.858;4.392;2023-06-04T14:58:56;31.70;45.40
43679;DHT22;29279;50.858;4.392;2023-06-04T15:01:21;31.30;46.80
43679;DHT22;29279;50.858;4.392;2023-06-04T15:03:50;30.90;46.90
43679;DHT22;29279;50.858;4.392;2023-06-04T15:06:16;30.90;46.50
43679;DHT22;29279;50.858;4.392;2023-06-04T15:08:42;30.70;46.70
43679;DHT22;29279;50.858;4.392;2023-06-04T15:11:09;30.70;47.20
43679;DHT22;29279;50.858;4.392;2023-06-04T15:13:35;30.60;46.10
43679;DHT22;29279;50.858;4.392;2023-06-04T15:16:01;30.40;47.00
43679;DHT22;29279;50.858;4.392;2023-06-04T15:18:27;30.30;46.70
43679;DHT22;29279;50.858;4.392;2023-06-04T15:20:53;30.40;46.70
43679;DHT22;29279;50.858;4.392;2023-06-04T15:23:18;30.30;46.00
43679;DHT22;29279;50.858;4.392;2023-06-04T15:25:44;30.10;46.20
43679;DHT22;29279;50.858;4.392;2023-06-04T15:28:10;30.20;46.10
43679;DHT22;29279;50.858;4.392;2023-06-04T15:30:36;30.20;45.70
43679;DHT22;29279;50.858;4.392;2023-06-04T15:33:01;30.20;47.10
43679;DHT22;29279;50.858;4.392;2023-06-04T15:35:27;30.20;46.20